Terminal Aerodrome Forecast
Issued by NWS

Home | Current Version | Previous Version | Text Only | Print | Product List | Glossary On
Versions: 1 2 3 4 5 6 7 8 9 10 11 12 13 14
957
FTUS41 KBTV 200536
TAFMSS
TAF
KMSS 200536Z 2006/2106 22015G23KT P6SM OVC070
     FM201000 23020G31KT P6SM OVC100
     FM201700 24017G25KT P6SM OVC030
     FM210200 24010KT P6SM BKN015=

USA.gov is the U.S. government's official web portal to all federal, state and local government web resources and services.